Time;durP1;ratioP1;P1;durP2;ratioP2;P2;SDS_P1;SDS_P2;PMS_P1;PMS_P2;Temp;Humidity;BMP_temperature;BMP_pressure;BME280_temperature;BME280_humidity;BME280_pressure;Samples;Min_cycle;Max_cycle;Signal;HPM_P1;HPM_P2
2023/12/05 00:00:32;;;;;;;20.90;11.90;;;;;;;2.94;75.89;98409.97;5005882;28;20041;-74
2023/12/05 00:02:58;;;;;;;17.98;11.43;;;;;;;2.95;76.24;98403.88;5014846;28;20138;-74
2023/12/05 00:05:25;;;;;;;18.67;11.85;;;;;;;2.96;76.37;98389.94;5004798;28;20049;-74
2023/12/05 00:07:51;;;;;;;19.42;12.00;;;;;;;2.97;76.29;98394.25;5014821;28;20072;-75
2023/12/05 00:10:19;;;;;;;19.27;11.63;;;;;;;2.97;76.13;98394.25;5014000;28;20486;-75
2023/12/05 00:12:45;;;;;;;18.35;11.73;;;;;;;2.97;76.14;98391.66;4995981;28;20542;-75
2023/12/05 00:15:12;;;;;;;21.45;12.80;;;;;;;2.98;75.74;98385.53;4994655;28;20050;-75
2023/12/05 00:17:39;;;;;;;18.50;12.35;;;;;;;2.98;75.86;98390.72;4994717;28;20050;-75
2023/12/05 00:20:07;;;;;;;19.67;12.15;;;;;;;2.98;76.10;98387.28;4994948;28;20104;-74
2023/12/05 00:22:35;;;;;;;18.80;12.15;;;;;;;2.98;76.18;98382.06;5008748;28;20133;-75
2023/12/05 00:25:02;;;;;;;18.95;11.93;;;;;;;2.99;76.58;98379.41;5012735;28;20506;-75
2023/12/05 00:27:29;;;;;;;16.73;11.38;;;;;;;2.99;76.47;98376.81;5014522;28;20380;-75
2023/12/05 00:29:56;;;;;;;19.15;12.00;;;;;;;3.00;76.28;98380.25;5014138;28;20053;-74
2023/12/05 00:32:22;;;;;;;20.48;12.95;;;;;;;3.00;76.71;98375.88;5005562;28;20045;-75
2023/12/05 00:34:49;;;;;;;18.83;11.95;;;;;;;3.01;76.56;98376.75;5013967;28;20108;-74
2023/12/05 00:37:16;;;;;;;19.05;12.27;;;;;;;3.02;76.79;98375.00;5014034;28;20089;-75
2023/12/05 00:39:42;;;;;;;19.13;12.80;;;;;;;3.03;76.50;98371.47;5013929;28;20120;-75
2023/12/05 00:42:09;;;;;;;18.55;11.90;;;;;;;3.04;76.86;98371.41;5008333;28;20133;-75
2023/12/05 00:44:35;;;;;;;21.83;13.52;;;;;;;3.06;76.45;98368.72;4994025;28;20062;-74
2023/12/05 00:49:34;;;;;;;19.15;12.60;;;;;;;3.08;76.83;98372.94;4900022;23;20050;-77
2023/12/05 00:52:01;;;;;;;20.23;12.32;;;;;;;3.10;76.52;98354.66;4994903;28;20043;-78
2023/12/05 00:54:27;;;;;;;19.70;12.27;;;;;;;3.11;76.38;98366.75;4994962;28;20078;-77
2023/12/05 00:56:55;;;;;;;19.80;11.77;;;;;;;3.13;76.73;98357.09;4995086;28;20865;-77
2023/12/05 00:59:21;;;;;;;20.92;12.95;;;;;;;3.14;76.69;98361.38;5002462;28;20479;-78
2023/12/05 01:01:48;;;;;;;18.60;11.95;;;;;;;3.15;76.72;98354.41;4992376;28;20538;-78
2023/12/05 01:04:14;;;;;;;18.52;12.25;;;;;;;3.17;76.86;98355.22;4994613;28;20046;-77
2023/12/05 01:06:42;;;;;;;19.48;12.15;;;;;;;3.16;76.37;98356.94;4994668;28;20142;-78
2023/12/05 01:09:10;;;;;;;19.45;11.88;;;;;;;3.17;76.75;98363.81;4997939;28;20037;-77
2023/12/05 01:11:37;;;;;;;20.10;12.93;;;;;;;3.20;76.72;98360.22;5014316;28;20046;-77
2023/12/05 01:14:03;;;;;;;18.55;12.23;;;;;;;3.20;76.69;98357.63;5014225;28;20141;-77
2023/12/05 01:16:30;;;;;;;19.08;11.85;;;;;;;3.21;76.58;98357.56;5013893;28;20061;-77
2023/12/05 01:18:57;;;;;;;19.80;12.65;;;;;;;3.21;76.51;98356.75;5013381;28;20092;-77
2023/12/05 01:21:23;;;;;;;22.27;12.65;;;;;;;3.21;76.62;98357.56;4995482;28;20435;-77
2023/12/05 01:23:50;;;;;;;18.63;12.02;;;;;;;3.20;76.58;98355.88;4994561;28;20383;-77
2023/12/05 01:26:16;;;;;;;17.15;11.85;;;;;;;3.21;76.26;98351.53;4994113;28;20546;-77
2023/12/05 01:28:43;;;;;;;19.30;12.05;;;;;;;3.20;76.61;98360.22;4995886;28;20046;-77
2023/12/05 01:31:10;;;;;;;19.20;12.05;;;;;;;3.20;76.35;98355.03;5000221;28;20050;-76
2023/12/05 01:33:36;;;;;;;20.10;11.98;;;;;;;3.19;76.93;98349.00;4994062;28;20560;-76
2023/12/05 01:36:08;;;;;;;17.00;11.38;;;;;;;3.18;76.66;98347.31;4994159;28;20368;-76
2023/12/05 01:38:35;;;;;;;18.00;12.07;;;;;;;3.20;76.50;98352.44;4994283;28;20117;-77
2023/12/05 01:41:02;;;;;;;19.88;12.23;;;;;;;3.20;76.91;98353.28;5002956;28;20300;-77
2023/12/05 01:43:28;;;;;;;17.88;11.85;;;;;;;3.21;76.95;98348.94;5012981;28;20037;-77
2023/12/05 01:45:55;;;;;;;19.13;12.10;;;;;;;3.21;76.59;98348.94;5012704;28;20058;-77
2023/12/05 01:48:25;;;;;;;16.88;11.05;;;;;;;3.20;76.82;98345.47;5012726;28;20050;-76
2023/12/05 01:50:54;;;;;;;18.00;11.98;;;;;;;3.21;76.92;98341.97;5006946;28;20149;-77
2023/12/05 01:53:22;;;;;;;19.10;12.00;;;;;;;3.22;76.95;98345.41;4993284;28;20058;-76
2023/12/05 01:55:50;;;;;;;18.77;12.75;;;;;;;3.21;76.77;98347.16;4992959;28;20085;-76
2023/12/05 01:58:18;;;;;;;19.63;12.60;;;;;;;3.23;77.13;98344.50;4993010;28;20078;-77
2023/12/05 02:00:45;;;;;;;19.70;11.57;;;;;;;3.24;76.93;98340.97;4992997;28;20113;-77
2023/12/05 02:03:12;;;;;;;21.50;12.15;;;;;;;3.24;76.70;98341.81;4993215;28;20046;-78
2023/12/05 02:05:39;;;;;;;16.90;11.32;;;;;;;3.25;76.83;98337.44;4992958;28;20046;-77
2023/12/05 02:08:08;;;;;;;22.05;13.60;;;;;;;3.25;76.88;98340.88;4992935;28;20475;-76
2023/12/05 02:10:35;;;;;;;20.50;13.18;;;;;;;3.26;76.76;98339.97;4996837;28;20132;-77
2023/12/05 02:13:01;;;;;;;20.23;13.43;;;;;;;3.24;77.21;98341.81;5012055;28;20108;-77
2023/12/05 02:15:28;;;;;;;16.77;12.38;;;;;;;3.25;77.28;98335.69;5012192;28;20101;-77
2023/12/05 02:18:13;;;;;;;19.10;12.82;;;;;;;3.21;76.42;98328.97;5012543;28;20053;-76
2023/12/05 02:20:56;;;;;;;18.73;11.95;;;;;;;3.21;76.62;98328.97;5009571;28;20053;-77
2023/12/05 02:23:43;;;;;;;19.75;12.07;;;;;;;3.25;76.79;98322.69;4992778;28;20046;-76
2023/12/05 02:26:41;;;;;;;18.10;11.98;;;;;;;3.21;76.80;98315.97;4992174;28;20070;-77
2023/12/05 02:29:07;;;;;;;20.27;12.88;;;;;;;3.24;76.91;98309.75;4992587;28;20546;-77
2023/12/05 02:31:34;;;;;;;20.08;12.82;;;;;;;3.25;76.88;98319.22;5000770;28;20072;-77
2023/12/05 02:34:00;;;;;;;20.90;12.45;;;;;;;3.25;76.97;98314.88;4992415;28;20050;-75
2023/12/05 02:37:06;;;;;;;19.80;12.65;;;;;;;3.23;76.57;98315.88;4992442;28;20057;-76
2023/12/05 02:39:36;;;;;;;17.63;12.25;;;;;;;3.26;77.06;98307.94;4992409;28;20537;-77
2023/12/05 02:42:08;;;;;;;19.10;12.07;;;;;;;3.26;77.13;98313.97;4992288;28;20042;-76
2023/12/05 02:44:44;;;;;;;;;;;;;;;3.28;76.21;98303.47;4992528;28;20132;-76
2023/12/05 02:47:13;;;;;;;19.13;10.93;;;;;;;3.32;76.88;98312.00;4992520;28;19961;-77
2023/12/05 02:49:40;;;;;;;18.25;12.25;;;;;;;3.29;77.12;98310.34;4992184;28;20066;-77
2023/12/05 02:52:07;;;;;;;19.88;12.63;;;;;;;3.29;77.49;98302.56;5005032;28;20042;-76
2023/12/05 02:54:33;;;;;;;18.60;11.93;;;;;;;3.29;77.08;98306.94;5011531;28;20133;-77
2023/12/05 02:57:00;;;;;;;20.08;12.85;;;;;;;3.28;77.30;98298.28;5011549;28;20046;-77
2023/12/05 02:59:27;;;;;;;21.20;12.80;;;;;;;3.30;76.95;98303.41;5011697;28;20105;-76
2023/12/05 03:01:53;;;;;;;19.38;13.00;;;;;;;3.29;77.27;98310.34;5010181;28;20077;-76
2023/12/05 03:04:20;;;;;;;21.67;13.75;;;;;;;3.30;77.40;98304.25;5011438;28;20081;-76
2023/12/05 03:06:47;;;;;;;20.20;13.30;;;;;;;3.30;76.99;98304.25;5011513;28;20042;-77
2023/12/05 03:09:13;;;;;;;20.65;13.25;;;;;;;3.31;77.46;98305.94;5011452;28;20048;-77
2023/12/05 03:11:40;;;;;;;17.00;12.13;;;;;;;3.33;77.31;98305.88;5006775;28;20042;-78
2023/12/05 03:14:07;;;;;;;21.17;13.07;;;;;;;3.34;77.40;98308.41;4991758;28;20388;-77
2023/12/05 03:16:33;;;;;;;19.33;13.10;;;;;;;3.33;77.17;98309.28;4991771;28;20047;-78
2023/12/05 03:18:59;;;;;;;19.58;13.23;;;;;;;3.34;77.13;98312.75;4991790;28;20065;-76
2023/12/05 03:21:27;;;;;;;22.88;13.02;;;;;;;3.34;77.00;98307.53;4991959;28;20058;-78
2023/12/05 03:23:54;;;;;;;22.10;13.93;;;;;;;3.35;77.37;98298.81;5010846;28;20056;-77
2023/12/05 03:26:21;;;;;;;20.63;13.52;;;;;;;3.37;77.44;98302.19;5010668;28;20044;-76
2023/12/05 03:28:49;;;;;;;20.75;13.20;;;;;;;3.38;77.69;98296.06;4993529;28;20383;-77
2023/12/05 03:31:15;;;;;;;20.55;13.93;;;;;;;3.39;76.98;98295.13;5010714;28;20564;-77
2023/12/05 03:33:42;;;;;;;21.35;13.52;;;;;;;3.39;76.98;98296.00;4995844;28;20085;-77
2023/12/05 03:36:10;;;;;;;19.30;13.18;;;;;;;3.40;77.39;98294.22;4991237;28;20050;-76
2023/12/05 03:38:41;;;;;;;20.42;13.20;;;;;;;3.40;77.04;98291.59;5000068;28;20640;-76
2023/12/05 03:41:09;;;;;;;20.35;12.65;;;;;;;3.40;77.23;98294.22;5010924;28;20504;-77
2023/12/05 03:43:35;;;;;;;20.55;13.93;;;;;;;3.39;77.49;98287.34;4991178;28;20054;-77
2023/12/05 03:46:02;;;;;;;20.45;14.07;;;;;;;3.40;77.18;98289.00;4990830;28;20038;-77
2023/12/05 03:48:28;;;;;;;22.30;14.45;;;;;;;3.41;77.16;98287.25;4973925;28;20113;-75
2023/12/05 03:50:55;;;;;;;18.05;12.63;;;;;;;3.42;77.02;98292.38;4990927;28;20490;-77
2023/12/05 03:53:22;;;;;;;20.02;13.57;;;;;;;3.42;77.13;98292.38;4991432;28;20124;-77
2023/12/05 03:55:49;;;;;;;21.70;13.95;;;;;;;3.41;77.31;98285.50;4973939;28;20438;-77
2023/12/05 03:58:16;;;;;;;19.70;13.20;;;;;;;3.41;77.22;98288.09;4991349;28;20133;-79
2023/12/05 04:00:42;;;;;;;20.27;13.60;;;;;;;3.41;77.19;98282.91;4991096;28;20105;-76
2023/12/05 04:03:09;;;;;;;21.33;13.88;;;;;;;3.42;77.34;98289.78;4990756;28;20398;-76
2023/12/05 04:05:35;;;;;;;19.55;13.07;;;;;;;3.43;77.51;98294.06;4973408;28;20069;-77
2023/12/05 04:08:02;;;;;;;19.50;13.20;;;;;;;3.45;77.47;98281.84;4991286;28;20054;-77
2023/12/05 04:10:28;;;;;;;19.55;13.18;;;;;;;3.46;77.45;98290.47;4990890;28;20142;-77
2023/12/05 04:12:55;;;;;;;18.95;13.10;;;;;;;3.46;77.02;98288.72;4991128;28;20042;-76
2023/12/05 04:15:22;;;;;;;18.60;12.75;;;;;;;3.48;77.52;98292.06;4990997;28;20769;-77
2023/12/05 04:17:49;;;;;;;18.60;13.02;;;;;;;3.49;77.05;98301.56;4991046;28;20066;-76
2023/12/05 04:20:17;;;;;;;19.55;13.27;;;;;;;3.50;77.18;98285.03;4990856;28;20054;-77
2023/12/05 04:22:43;;;;;;;20.35;13.50;;;;;;;3.49;76.87;98285.97;4990601;28;20038;-76
2023/12/05 04:25:10;;;;;;;22.27;13.98;;;;;;;3.50;77.32;98289.38;4990777;28;20124;-76
2023/12/05 04:27:37;;;;;;;20.17;13.90;;;;;;;3.51;77.05;98291.06;4990741;28;20054;-76
2023/12/05 04:30:04;;;;;;;18.67;13.30;;;;;;;3.50;76.92;98292.84;4990770;28;20047;-75
2023/12/05 04:32:31;;;;;;;19.25;13.88;;;;;;;3.48;76.87;98284.25;4973629;28;20054;-77
2023/12/05 04:34:58;;;;;;;19.23;12.60;;;;;;;3.47;77.05;98285.19;4990659;28;20050;-77
2023/12/05 04:37:25;;;;;;;21.52;13.75;;;;;;;3.47;77.21;98285.19;4993594;28;20038;-77
2023/12/05 04:39:51;;;;;;;18.75;12.50;;;;;;;3.47;77.35;98285.19;4994519;28;20065;-76
2023/12/05 04:42:18;;;;;;;20.35;12.85;;;;;;;3.46;76.88;98283.50;4994367;28;20069;-76
2023/12/05 04:44:44;;;;;;;19.25;13.32;;;;;;;3.46;77.13;98287.84;4994262;28;20050;-76
2023/12/05 04:47:11;;;;;;;20.70;13.38;;;;;;;3.46;76.88;98286.09;4994049;28;20081;-75
2023/12/05 04:49:37;;;;;;;19.10;13.02;;;;;;;3.46;77.45;98282.66;4993157;28;20056;-76
2023/12/05 04:52:04;;;;;;;22.20;13.32;;;;;;;3.47;77.09;98286.94;4994144;28;20493;-77
2023/12/05 04:54:31;;;;;;;20.15;12.60;;;;;;;3.46;77.50;98286.09;4994023;28;20050;-76
2023/12/05 04:56:58;;;;;;;17.83;12.65;;;;;;;3.47;77.11;98284.31;4993897;28;20056;-76
2023/12/05 04:59:26;;;;;;;19.95;13.55;;;;;;;3.48;77.28;98286.84;4992739;28;20053;-76
2023/12/05 05:01:53;;;;;;;18.77;13.07;;;;;;;3.48;77.12;98294.66;4992644;28;20394;-76
2023/12/05 05:04:20;;;;;;;17.98;12.57;;;;;;;3.50;77.11;98289.38;4994054;28;20082;-76
2023/12/05 05:06:47;;;;;;;22.95;13.20;;;;;;;3.50;77.13;98287.63;4993760;28;20042;-77
2023/12/05 05:09:13;;;;;;;18.98;12.82;;;;;;;3.51;77.35;98288.44;4993728;28;20054;-76
2023/12/05 05:11:40;;;;;;;21.58;13.63;;;;;;;3.51;76.96;98286.69;4993931;28;20048;-76
2023/12/05 05:14:07;;;;;;;21.05;12.80;;;;;;;3.52;77.12;98292.75;4993907;28;20052;-75
2023/12/05 05:16:33;;;;;;;22.05;13.77;;;;;;;3.52;77.22;98293.59;4993583;28;20050;-76
2023/12/05 05:19:00;;;;;;;20.52;13.82;;;;;;;3.52;77.19;98287.56;4993486;28;20046;-75
2023/12/05 05:21:26;;;;;;;19.52;13.63;;;;;;;3.52;77.21;98298.78;4993651;28;20129;-76
2023/12/05 05:23:53;;;;;;;20.48;13.75;;;;;;;3.52;77.40;98290.16;4993797;28;20419;-76
2023/12/05 05:26:21;;;;;;;22.60;13.00;;;;;;;3.52;77.05;98293.59;4993471;28;20074;-76
2023/12/05 05:28:47;;;;;;;21.52;14.15;;;;;;;3.54;77.42;98295.28;4993303;28;20049;-76
2023/12/05 05:31:14;;;;;;;20.50;13.63;;;;;;;3.55;77.27;98296.97;4993588;28;20049;-76
2023/12/05 05:33:40;;;;;;;19.58;13.18;;;;;;;3.55;76.86;98302.16;4993618;28;20050;-76
2023/12/05 05:36:08;;;;;;;20.98;13.57;;;;;;;3.54;77.36;98300.50;4993360;28;20141;-76
2023/12/05 05:38:35;;;;;;;24.15;14.90;;;;;;;3.54;77.16;98293.50;4993126;28;20085;-77
2023/12/05 05:41:06;;;;;;;20.45;13.68;;;;;;;3.52;77.29;98303.16;4993024;28;20503;-76
2023/12/05 05:43:33;;;;;;;20.27;13.95;;;;;;;3.53;77.23;98299.63;4993430;28;20061;-76
2023/12/05 05:46:00;;;;;;;22.90;14.15;;;;;;;3.54;77.30;98295.28;4993262;28;20050;-76
2023/12/05 05:48:27;;;;;;;25.13;15.88;;;;;;;3.54;77.55;98300.50;4992476;28;20058;-76
2023/12/05 05:50:54;;;;;;;22.83;14.82;;;;;;;3.54;77.51;98292.69;4992074;28;20054;-77
2023/12/05 05:53:21;;;;;;;22.38;14.77;;;;;;;3.56;77.72;98293.44;4993240;28;20097;-76
2023/12/05 05:55:48;;;;;;;28.02;15.45;;;;;;;3.57;77.63;98297.72;4993066;28;20050;-76
2023/12/05 05:58:14;;;;;;;22.05;15.05;;;;;;;3.58;77.58;98299.38;4993147;28;20050;-77
2023/12/05 06:00:41;;;;;;;25.05;16.15;;;;;;;3.57;77.17;98301.16;4991641;28;20042;-75
2023/12/05 06:03:08;;;;;;;24.67;14.85;;;;;;;3.57;77.16;98301.16;4993226;28;20042;-76
2023/12/05 06:05:35;;;;;;;22.83;15.07;;;;;;;3.57;77.44;98297.72;4992881;28;20081;-75
2023/12/05 06:08:02;;;;;;;22.85;15.73;;;;;;;3.57;77.35;98295.09;4991791;28;20125;-74
2023/12/05 06:10:28;;;;;;;22.45;14.85;;;;;;;3.57;77.40;98295.97;4992534;28;20082;-74
2023/12/05 06:12:55;;;;;;;21.45;13.95;;;;;;;3.58;77.49;98301.97;4991703;28;20054;-77
2023/12/05 06:15:22;;;;;;;24.10;15.88;;;;;;;3.58;77.28;98299.38;4992754;28;20053;-75
2023/12/05 06:17:48;;;;;;;24.23;16.02;;;;;;;3.58;77.44;98296.78;4992974;28;20149;-75
2023/12/05 06:20:15;;;;;;;21.60;14.55;;;;;;;3.58;77.40;98300.22;4992495;28;20038;-73
2023/12/05 06:22:42;;;;;;;23.05;15.05;;;;;;;3.59;77.17;98298.50;4975181;28;20046;-76
2023/12/05 06:25:09;;;;;;;22.27;14.57;;;;;;;3.59;77.43;98298.50;4992366;28;20474;-75
2023/12/05 06:27:35;;;;;;;22.38;14.82;;;;;;;3.59;77.42;98301.91;4975531;28;20109;-75
2023/12/05 06:30:02;;;;;;;22.63;15.07;;;;;;;3.58;77.35;98292.44;4992340;28;20104;-78
2023/12/05 06:32:46;;;;;;;23.17;14.88;;;;;;;3.59;77.35;98298.50;4977640;28;20125;-75
2023/12/05 06:35:12;;;;;;;22.25;14.40;;;;;;;3.58;77.31;98291.56;4991172;28;20051;-79
2023/12/05 06:37:39;;;;;;;23.88;14.90;;;;;;;3.58;77.37;98296.78;4991256;28;20069;-77
2023/12/05 06:40:06;;;;;;;21.58;14.80;;;;;;;3.57;77.26;98295.09;4990623;28;20462;-76
2023/12/05 06:42:34;;;;;;;20.73;14.15;;;;;;;3.57;77.52;98295.97;4992476;28;20038;-77
2023/12/05 06:45:02;;;;;;;22.10;14.38;;;;;;;3.56;77.10;98302.09;4974994;28;20049;-76
2023/12/05 06:50:01;;;;;;;22.50;14.57;;;;;;;3.56;77.38;98291.69;5000275;28;20109;-72
2023/12/05 06:52:28;;;;;;;22.52;14.68;;;;;;;3.56;77.52;98293.44;4992682;28;20054;-72
2023/12/05 06:54:55;;;;;;;23.17;15.52;;;;;;;3.56;77.68;98290.84;4992462;28;20060;-69
2023/12/05 06:57:22;;;;;;;21.15;13.77;;;;;;;3.56;77.33;98293.44;4992552;28;20495;-73
2023/12/05 06:59:48;;;;;;;24.20;15.05;;;;;;;3.55;77.55;98292.56;4991920;28;20046;-72
2023/12/05 07:02:16;;;;;;;24.80;15.52;;;;;;;3.57;77.46;98295.97;4992518;28;20046;-73
2023/12/05 07:04:43;;;;;;;21.75;14.95;;;;;;;3.56;77.67;98294.28;4992280;28;20078;-71
2023/12/05 07:07:10;;;;;;;23.80;15.27;;;;;;;3.58;77.34;98307.19;4975170;28;20153;-72
2023/12/05 07:09:37;;;;;;;20.83;13.85;;;;;;;3.57;77.89;98319.38;4993612;28;20066;-72
2023/12/05 07:12:04;;;;;;;22.55;14.55;;;;;;;3.58;77.45;98312.38;4992402;28;20137;-72
2023/12/05 07:14:34;;;;;;;24.02;15.60;;;;;;;3.57;77.49;98318.53;4992480;28;20510;-70
2023/12/05 07:17:01;;;;;;;21.83;14.27;;;;;;;3.59;77.74;98311.50;4992496;28;20058;-71
2023/12/05 07:19:27;;;;;;;25.45;14.73;;;;;;;3.59;77.56;98312.31;4992239;28;20101;-72
2023/12/05 07:21:54;;;;;;;23.75;14.95;;;;;;;3.60;77.63;98307.97;4992112;28;20120;-71
2023/12/05 07:24:21;;;;;;;23.95;13.90;;;;;;;3.60;77.52;98310.56;4992398;28;20101;-73
2023/12/05 07:26:48;;;;;;;23.52;15.07;;;;;;;3.59;77.59;98309.72;4992656;28;20050;-72
2023/12/05 07:29:14;;;;;;;22.25;14.57;;;;;;;3.60;77.63;98320.97;5058708;23;20045;-77
2023/12/05 07:31:42;;;;;;;25.60;14.77;;;;;;;3.59;77.77;98320.13;5011828;28;20073;-76
2023/12/05 07:34:08;;;;;;;23.67;14.98;;;;;;;3.62;77.88;98324.31;5011752;28;20132;-78
2023/12/05 07:36:39;;;;;;;22.75;14.77;;;;;;;3.60;77.83;98321.84;5011657;28;20042;-77
2023/12/05 07:39:06;;;;;;;23.02;14.70;;;;;;;3.61;77.64;98323.50;5011827;28;20147;-76
2023/12/05 07:41:33;;;;;;;22.85;14.52;;;;;;;3.62;77.63;98327.78;5011621;28;20100;-77
2023/12/05 07:43:59;;;;;;;24.55;14.93;;;;;;;3.63;77.69;98321.66;5011715;28;20136;-76
2023/12/05 07:46:26;;;;;;;25.38;15.75;;;;;;;3.62;78.09;98327.78;5011352;28;20478;-78
2023/12/05 07:48:52;;;;;;;21.85;14.63;;;;;;;3.64;77.87;98322.50;5011816;28;20049;-77
2023/12/05 07:51:19;;;;;;;24.70;15.95;;;;;;;3.65;77.65;98331.97;5011765;28;20096;-77
2023/12/05 07:53:50;;;;;;;27.15;16.58;;;;;;;3.65;77.79;98339.78;5011581;28;20491;-77
2023/12/05 07:56:17;;;;;;;24.83;15.85;;;;;;;3.67;77.68;98342.31;5011422;28;20042;-77
2023/12/05 07:58:43;;;;;;;25.65;16.23;;;;;;;3.68;77.68;98347.44;5011503;28;20483;-78
2023/12/05 08:01:11;;;;;;;24.85;14.80;;;;;;;3.68;77.95;98344.84;5011353;28;20069;-77
2023/12/05 08:03:37;;;;;;;22.27;15.13;;;;;;;3.69;77.99;98341.31;5011389;28;20733;-79
2023/12/05 08:06:05;;;;;;;23.70;16.52;;;;;;;3.70;78.08;98344.78;5010725;28;20049;-78
2023/12/05 08:08:33;;;;;;;23.83;15.48;;;;;;;3.70;78.18;98343.00;5011016;28;20112;-77
2023/12/05 08:11:00;;;;;;;23.98;15.70;;;;;;;3.72;78.09;98354.19;5011452;28;20046;-78
2023/12/05 08:13:29;;;;;;;24.95;15.95;;;;;;;3.73;78.21;98350.66;5014724;28;20474;-77
2023/12/05 08:15:56;;;;;;;22.95;15.27;;;;;;;3.75;78.19;98351.44;5014777;28;20053;-77
2023/12/05 08:18:23;;;;;;;25.35;16.40;;;;;;;3.78;78.09;98353.03;5014842;28;20092;-77
2023/12/05 08:20:49;;;;;;;22.13;15.20;;;;;;;3.80;78.26;98355.53;5014550;28;20651;-76
2023/12/05 08:23:16;;;;;;;27.35;15.50;;;;;;;3.81;77.75;98362.44;5014482;28;20483;-77
2023/12/05 08:25:42;;;;;;;26.90;15.80;;;;;;;3.81;78.08;98360.66;4996802;28;20125;-77
2023/12/05 08:28:09;;;;;;;23.25;14.65;;;;;;;3.83;78.00;98364.03;5014354;28;20046;-79
2023/12/05 08:30:37;;;;;;;19.65;14.48;;;;;;;3.84;77.85;98360.50;4996977;28;20053;-79
2023/12/05 08:33:05;;;;;;;23.60;15.68;;;;;;;3.85;77.98;98362.19;5014548;28;20042;-76
2023/12/05 08:35:32;;;;;;;22.00;13.95;;;;;;;3.86;77.98;98361.28;5013110;28;20120;-76
2023/12/05 08:37:59;;;;;;;21.58;13.98;;;;;;;3.88;78.05;98358.56;5014523;28;20382;-77
2023/12/05 08:40:25;;;;;;;22.70;14.23;;;;;;;3.89;78.03;98362.88;5014335;28;20077;-76
2023/12/05 08:42:52;;;;;;;20.63;14.25;;;;;;;3.90;77.83;98364.56;5013983;28;20049;-78
2023/12/05 08:45:19;;;;;;;23.70;14.18;;;;;;;3.90;77.81;98364.56;5014155;28;20124;-77
2023/12/05 08:47:46;;;;;;;21.38;12.70;;;;;;;3.91;77.86;98374.03;5014121;28;20049;-77
2023/12/05 08:50:12;;;;;;;20.35;13.60;;;;;;;3.91;77.86;98371.44;5013921;28;20124;-78
2023/12/05 08:52:39;;;;;;;19.85;13.27;;;;;;;3.93;77.89;98367.00;5014034;28;20049;-78
2023/12/05 08:55:06;;;;;;;22.10;14.23;;;;;;;3.96;77.98;98379.03;5013723;28;20042;-77
2023/12/05 08:57:33;;;;;;;21.02;14.00;;;;;;;3.97;77.89;98378.94;5014112;28;20045;-79
2023/12/05 09:00:00;;;;;;;21.05;13.93;;;;;;;3.98;77.95;98372.81;5014027;28;20050;-78
2023/12/05 09:02:26;;;;;;;21.98;13.65;;;;;;;4.01;78.20;98377.00;4997061;28;20395;-76
2023/12/05 09:04:54;;;;;;;17.27;12.15;;;;;;;4.01;78.01;98367.41;4994041;28;20042;-77
2023/12/05 09:07:22;;;;;;;19.70;13.85;;;;;;;4.04;78.21;98379.47;5011768;28;20486;-76
2023/12/05 09:09:49;;;;;;;17.90;12.68;;;;;;;4.04;78.15;98380.28;5013649;28;20054;-76
2023/12/05 09:12:15;;;;;;;17.50;13.10;;;;;;;4.07;78.24;98378.47;5013957;28;20108;-76
2023/12/05 09:14:42;;;;;;;18.98;12.88;;;;;;;4.10;78.11;98388.69;5013538;28;20054;-78
2023/12/05 09:17:09;;;;;;;18.15;12.60;;;;;;;4.12;77.93;98394.69;5004602;28;20525;-76
2023/12/05 09:19:36;;;;;;;18.35;12.55;;;;;;;4.12;78.28;98392.91;5012294;28;20081;-77
2023/12/05 09:22:03;;;;;;;20.00;14.07;;;;;;;4.13;77.73;98386.78;5013064;28;20061;-77
2023/12/05 09:24:29;;;;;;;19.73;12.52;;;;;;;4.14;78.18;98393.66;5012509;28;20050;-77
2023/12/05 09:26:56;;;;;;;18.75;12.88;;;;;;;4.16;78.15;98385.78;5010801;28;20398;-77
2023/12/05 09:29:23;;;;;;;18.33;12.55;;;;;;;4.19;77.82;98396.03;5013472;28;20054;-77
2023/12/05 09:31:49;;;;;;;19.83;12.80;;;;;;;4.19;78.03;98390.84;5013328;28;20057;-77
2023/12/05 09:34:16;;;;;;;19.15;13.10;;;;;;;4.22;78.32;98393.25;5013085;28;20045;-77
2023/12/05 09:36:42;;;;;;;21.33;12.77;;;;;;;4.24;78.02;98395.78;5008668;28;20058;-77
2023/12/05 09:39:10;;;;;;;21.50;12.77;;;;;;;4.24;77.96;98396.63;5003424;28;20054;-77
2023/12/05 09:41:45;;;;;;;18.55;12.02;;;;;;;4.26;78.12;98396.56;4993811;28;20141;-77
2023/12/05 09:44:12;;;;;;;21.58;12.48;;;;;;;4.29;78.24;98399.84;4993403;28;20049;-77
2023/12/05 09:46:46;;;;;;;17.63;12.65;;;;;;;4.30;77.79;98398.91;4994315;28;20399;-77
2023/12/05 09:49:16;;;;;;;17.70;11.93;;;;;;;4.33;78.12;98395.28;5011811;28;20038;-77
2023/12/05 09:51:46;;;;;;;17.13;11.70;;;;;;;4.34;78.03;98396.97;5012960;28;20132;-77
2023/12/05 09:54:14;;;;;;;16.35;11.18;;;;;;;4.36;78.08;98400.34;5012725;28;20441;-77
2023/12/05 09:56:41;;;;;;;16.85;11.35;;;;;;;4.39;78.13;98401.94;5012966;28;20081;-77
2023/12/05 09:59:13;;;;;;;16.50;11.60;;;;;;;4.40;78.15;98396.66;5001107;28;20046;-76
2023/12/05 10:01:43;;;;;;;14.90;10.98;;;;;;;4.43;77.94;98406.06;5005090;28;20065;-77
2023/12/05 10:04:11;;;;;;;17.20;11.63;;;;;;;4.46;78.02;98398.09;5012863;28;20042;-77
2023/12/05 10:06:39;;;;;;;16.30;11.48;;;;;;;4.48;78.01;98409.25;5012823;28;20092;-77
2023/12/05 10:09:08;;;;;;;14.73;10.32;;;;;;;4.51;77.98;98400.44;5003732;28;20045;-77
2023/12/05 10:11:36;;;;;;;15.20;10.30;;;;;;;4.53;78.01;98404.63;5010066;28;20058;-77
2023/12/05 10:14:03;;;;;;;14.02;10.25;;;;;;;4.56;78.13;98401.03;5012637;28;20046;-76
2023/12/05 10:16:31;;;;;;;16.80;11.07;;;;;;;4.59;77.98;98403.47;5012169;28;20581;-78
2023/12/05 10:18:58;;;;;;;15.57;10.63;;;;;;;4.61;78.24;98408.59;5000718;28;20120;-77
2023/12/05 10:21:25;;;;;;;18.23;11.15;;;;;;;4.65;78.22;98412.72;4993292;28;20053;-76
2023/12/05 10:23:53;;;;;;;18.25;11.43;;;;;;;4.67;78.11;98403.03;4992864;28;20046;-78
2023/12/05 10:26:20;;;;;;;21.95;11.27;;;;;;;4.69;77.71;98407.28;4992653;28;20046;-78
2023/12/05 10:28:56;;;;;;;14.60;10.40;;;;;;;4.69;77.33;98409.03;5006841;28;20040;-76
2023/12/05 10:31:23;;;;;;;31.23;11.30;;;;;;;4.73;77.78;98397.50;5012210;28;20710;-79
2023/12/05 10:33:49;;;;;;;28.85;11.40;;;;;;;4.75;77.44;98400.88;5011882;28;20061;-77
2023/12/05 10:36:17;;;;;;;27.17;10.85;;;;;;;4.76;77.56;98396.50;5012147;28;20124;-76
2023/12/05 10:38:45;;;;;;;25.60;9.90;;;;;;;4.76;77.43;98399.13;5000152;28;20042;-77
2023/12/05 10:41:21;;;;;;;25.48;10.57;;;;;;;4.73;77.15;98399.28;4992479;28;20077;-77
2023/12/05 10:43:55;;;;;;;26.45;11.18;;;;;;;4.77;77.57;98395.56;4992343;28;20446;-78
2023/12/05 10:46:26;;;;;;;18.83;10.52;;;;;;;4.78;77.39;98397.25;4992338;28;20137;-77
2023/12/05 10:48:54;;;;;;;26.60;11.10;;;;;;;4.78;77.69;98392.88;5001251;28;20096;-77
2023/12/05 10:51:25;;;;;;;22.50;10.88;;;;;;;4.80;77.54;98398.03;5011824;28;20053;-78
2023/12/05 10:53:53;;;;;;;27.23;10.63;;;;;;;4.81;77.57;98397.94;5011801;28;20058;-77
2023/12/05 10:56:20;;;;;;;60.05;12.75;;;;;;;4.85;77.62;98400.38;5010646;28;20045;-77
2023/12/05 10:58:47;;;;;;;58.60;12.43;;;;;;;4.85;77.17;98397.78;5006363;28;20047;-79
2023/12/05 11:01:14;;;;;;;75.38;12.23;;;;;;;4.86;77.58;98394.25;5011450;28;20537;-78
2023/12/05 11:03:41;;;;;;;28.27;10.95;;;;;;;4.86;77.09;98399.44;5011550;28;20384;-76
2023/12/05 11:06:08;;;;;;;41.20;11.88;;;;;;;4.85;77.30;98393.38;5010244;28;20049;-77
2023/12/05 11:08:36;;;;;;;22.25;10.30;;;;;;;4.85;77.38;98398.59;5010110;28;20053;-77
2023/12/05 11:11:04;;;;;;;43.42;12.63;;;;;;;4.85;77.28;98397.78;4995205;28;20089;-79
2023/12/05 11:13:33;;;;;;;30.23;11.57;;;;;;;4.85;77.35;98397.78;4992133;28;20081;-76
2023/12/05 11:16:10;;;;;;;35.33;12.25;;;;;;;4.83;76.92;98395.25;4991673;28;20483;-76
2023/12/05 11:18:39;;;;;;;48.25;12.82;;;;;;;4.82;77.25;98399.63;4991944;28;20042;-76
2023/12/05 11:21:15;;;;;;;41.55;13.40;;;;;;;4.81;76.51;98400.53;5008068;28;20053;-77
2023/12/05 11:23:57;;;;;;;50.63;12.27;;;;;;;4.86;77.35;98402.06;5011545;28;20077;-77
2023/12/05 11:26:29;;;;;;;36.47;11.57;;;;;;;4.87;77.59;98401.13;5010138;28;20112;-77
2023/12/05 11:29:42;;;;;;;34.65;12.63;;;;;;;4.86;76.94;98407.28;5011147;28;20368;-79
2023/12/05 11:32:29;;;;;;;31.15;12.27;;;;;;;4.87;76.67;98403.72;4992194;28;20057;-77
2023/12/05 11:34:58;;;;;;;46.25;13.45;;;;;;;4.91;77.35;98406.09;4991353;28;20050;-77